createdAt,value
2022-10-25T00:03:10.857Z,0.25
2022-10-25T00:08:03.289Z,0.25
2022-10-25T00:12:55.220Z,0.20
2022-10-25T00:17:47.269Z,0.30
2022-10-25T00:22:39.712Z,0.20
2022-10-25T00:27:31.364Z,0.22
2022-10-25T00:32:23.028Z,0.20
2022-10-25T00:37:14.694Z,0.20
2022-10-25T00:42:06.482Z,0.30
2022-10-25T00:46:58.564Z,0.40
2022-10-25T00:51:54.010Z,0.52
2022-10-25T00:56:48.464Z,0.20
2022-10-25T01:01:41.700Z,0.30
2022-10-25T01:06:46.955Z,0.20
2022-10-25T01:11:38.630Z,0.20
2022-10-25T01:16:46.124Z,0.20
2022-10-25T01:21:45.909Z,0.23
2022-10-25T01:27:00.012Z,0.82
2022-10-25T01:32:20.455Z,0.28
2022-10-25T01:37:20.897Z,0.20
2022-10-25T01:42:49.903Z,0.20
2022-10-25T01:47:59.107Z,0.22
2022-10-25T01:52:50.824Z,0.20
2022-10-25T01:58:07.172Z,0.17
2022-10-25T02:03:26.780Z,0.47
2022-10-25T02:08:48.979Z,0.75
2022-10-25T02:13:44.283Z,0.30
2022-10-25T02:18:39.448Z,0.77
2022-10-25T02:23:34.584Z,0.20
2022-10-25T02:28:28.972Z,0.20
2022-10-25T02:33:20.984Z,0.40
2022-10-25T02:38:12.912Z,0.30
2022-10-25T02:43:04.605Z,0.65
2022-10-25T02:47:56.292Z,0.20
2022-10-25T02:52:48.326Z,0.20
2022-10-25T02:57:40.624Z,0.50
2022-10-25T03:02:32.402Z,0.60
2022-10-25T03:07:24.394Z,0.60
2022-10-25T03:12:16.450Z,0.60
2022-10-25T03:17:08.273Z,0.30
2022-10-25T03:22:00.053Z,0.40
2022-10-25T03:26:51.860Z,0.30
2022-10-25T03:31:44.325Z,0.30
2022-10-25T03:36:36.159Z,0.50
2022-10-25T03:41:27.784Z,0.40
2022-10-25T03:46:19.530Z,0.30
2022-10-25T03:51:11.164Z,0.60
2022-10-25T03:56:03.176Z,0.40
2022-10-25T04:00:55.075Z,1.05
2022-10-25T04:05:47.324Z,0.70
2022-10-25T04:10:39.594Z,0.35
2022-10-25T04:15:32.286Z,0.40
2022-10-25T04:20:24.079Z,0.50
2022-10-25T04:25:15.953Z,0.55
2022-10-25T04:30:08.042Z,0.40
2022-10-25T04:34:59.714Z,0.40
2022-10-25T04:39:51.522Z,0.60
2022-10-25T04:44:43.432Z,0.30
2022-10-25T04:49:35.060Z,0.43
2022-10-25T04:54:26.750Z,0.43
2022-10-25T04:59:18.493Z,0.40
2022-10-25T05:04:10.273Z,0.40
2022-10-25T05:09:02.071Z,0.40
2022-10-25T05:13:53.825Z,0.35
2022-10-25T05:18:46.050Z,0.20
2022-10-25T05:23:37.775Z,0.40
2022-10-25T05:28:29.539Z,0.50
2022-10-25T05:33:21.202Z,1.00
2022-10-25T05:38:12.854Z,0.60
2022-10-25T05:43:04.542Z,0.40
2022-10-25T05:47:56.430Z,0.30
2022-10-25T05:52:48.545Z,0.40
2022-10-25T05:57:40.731Z,0.57
2022-10-25T06:02:32.594Z,0.40
2022-10-25T06:07:24.353Z,0.50
2022-10-25T06:12:15.990Z,0.47
2022-10-25T06:17:07.671Z,0.40
2022-10-25T06:21:59.295Z,0.40
2022-10-25T06:26:50.854Z,0.30
2022-10-25T06:31:43.416Z,0.50
2022-10-25T06:36:35.195Z,0.60
2022-10-25T06:41:28.411Z,0.30
2022-10-25T06:46:22.307Z,0.38
2022-10-25T06:51:15.007Z,0.45
2022-10-25T06:56:14.362Z,0.50
2022-10-25T07:01:09.041Z,0.60
2022-10-25T07:06:35.905Z,0.93
2022-10-25T07:11:30.250Z,1.00
2022-10-25T07:16:22.173Z,1.15
2022-10-25T07:21:13.860Z,1.10
2022-10-25T07:26:05.618Z,0.93
2022-10-25T07:30:57.377Z,1.35
2022-10-25T07:36:05.805Z,1.30
2022-10-25T07:41:01.873Z,1.85
2022-10-25T07:45:53.919Z,1.83
2022-10-25T07:50:45.676Z,2.08
2022-10-25T07:55:37.271Z,2.00
2022-10-25T08:00:29.691Z,1.60
2022-10-25T08:05:21.299Z,1.52
2022-10-25T08:10:12.942Z,1.70
2022-10-25T08:15:05.009Z,2.60
2022-10-25T08:19:56.744Z,3.00
2022-10-25T08:24:48.665Z,2.90
2022-10-25T08:29:40.262Z,4.63
2022-10-25T08:34:33.229Z,3.35
2022-10-25T08:39:25.133Z,2.22
2022-10-25T08:44:45.797Z,2.08
2022-10-25T08:50:03.867Z,2.85
2022-10-25T08:55:01.764Z,3.42
2022-10-25T08:59:59.220Z,2.50
2022-10-25T09:04:53.629Z,2.33
2022-10-25T09:09:54.905Z,3.75
2022-10-25T09:15:23.417Z,4.32
2022-10-25T09:20:30.243Z,3.55
2022-10-25T09:25:30.244Z,3.20
2022-10-25T09:30:21.956Z,1.50
2022-10-25T09:35:38.407Z,1.25
2022-10-25T09:40:48.014Z,1.25
2022-10-25T09:46:03.802Z,1.23
2022-10-25T09:51:13.226Z,1.10
2022-10-25T09:56:05.415Z,0.73
2022-10-25T10:01:01.333Z,0.85
2022-10-25T10:06:00.302Z,0.50
2022-10-25T10:10:53.965Z,0.50
2022-10-25T10:16:14.696Z,0.40
2022-10-25T10:21:12.328Z,0.30
2022-10-25T10:26:12.981Z,0.40
2022-10-25T10:31:08.467Z,0.40
2022-10-25T10:37:04.626Z,0.50
2022-10-25T11:03:35.340Z,0.40
2022-10-25T11:08:29.544Z,0.30
2022-10-25T11:13:23.867Z,0.35
2022-10-25T11:18:17.462Z,0.40
2022-10-25T11:23:15.098Z,0.70
2022-10-25T11:28:31.042Z,0.35
2022-10-25T11:33:44.844Z,1.08
2022-10-25T11:39:12.149Z,0.65
2022-10-25T11:44:35.129Z,0.47
2022-10-25T11:50:03.822Z,0.50
2022-10-25T12:00:17.443Z,0.60
2022-10-25T12:05:15.634Z,0.80
2022-10-25T12:10:10.114Z,0.60
2022-10-25T12:15:03.859Z,0.40
2022-10-25T12:19:59.460Z,0.50
2022-10-25T12:25:14.316Z,0.30
2022-10-25T12:30:14.868Z,0.40
2022-10-25T12:35:28.806Z,1.02
2022-10-25T12:45:47.810Z,0.22
2022-10-25T12:50:57.878Z,0.35
2022-10-25T12:56:01.256Z,0.40
2022-10-25T13:00:53.126Z,0.30
2022-10-25T13:06:03.919Z,0.40
2022-10-25T13:11:01.656Z,0.30
2022-10-25T13:20:48.849Z,0.30
2022-10-25T13:25:49.599Z,0.32
2022-10-25T13:30:42.651Z,0.30
2022-10-25T13:35:37.883Z,0.17
2022-10-25T13:40:31.669Z,0.30
2022-10-25T13:45:40.811Z,0.20
2022-10-25T13:50:41.960Z,0.80
2022-10-25T13:55:39.770Z,0.20
2022-10-25T14:05:57.627Z,0.25
2022-10-25T14:10:50.861Z,0.40
2022-10-25T14:15:58.486Z,0.40
2022-10-25T14:20:55.364Z,0.30
2022-10-25T14:25:58.025Z,0.30
2022-10-25T14:30:58.231Z,0.20
2022-10-25T14:35:52.553Z,0.20
2022-10-25T14:40:57.652Z,0.20
2022-10-25T14:46:02.098Z,0.38
2022-10-25T14:50:56.105Z,0.40
2022-10-25T14:56:00.554Z,0.20
2022-10-25T15:01:02.470Z,0.20
2022-10-25T15:05:54.608Z,0.28
2022-10-25T15:10:49.974Z,0.30
2022-10-25T15:15:45.280Z,0.38
2022-10-25T15:20:37.062Z,0.30
2022-10-25T15:25:32.016Z,0.40
2022-10-25T15:30:44.053Z,0.60
2022-10-25T15:35:45.443Z,0.30
2022-10-25T15:40:38.892Z,0.40
2022-10-25T15:45:32.385Z,0.65
2022-10-25T15:50:25.590Z,0.35
2022-10-25T15:55:27.316Z,0.30
2022-10-25T16:00:25.565Z,0.22
2022-10-25T16:05:31.895Z,0.20
2022-10-25T16:10:25.071Z,0.40
2022-10-25T16:15:18.919Z,0.40
2022-10-25T16:20:20.543Z,0.68
2022-10-25T16:25:13.296Z,0.50
2022-10-25T16:30:05.558Z,0.50
2022-10-25T16:34:57.815Z,0.40
2022-10-25T16:39:49.474Z,0.52
2022-10-25T16:44:41.140Z,0.40
2022-10-25T16:49:33.043Z,0.28
2022-10-25T16:54:24.846Z,0.40
2022-10-25T16:59:16.976Z,0.50
2022-10-25T17:04:09.892Z,0.40
2022-10-25T17:09:01.695Z,0.55
2022-10-25T17:13:53.554Z,0.55
2022-10-25T17:18:45.578Z,0.40
2022-10-25T17:23:38.236Z,0.50
2022-10-25T17:28:30.668Z,0.50
2022-10-25T17:33:22.618Z,0.50
2022-10-25T17:38:15.609Z,0.80
2022-10-25T17:43:07.527Z,1.20
2022-10-25T17:48:00.529Z,0.60
2022-10-25T17:52:52.353Z,0.60
2022-10-25T17:57:43.991Z,0.95
2022-10-25T18:02:36.012Z,0.80
2022-10-25T18:07:30.052Z,0.80
2022-10-25T18:12:24.602Z,0.80
2022-10-25T18:17:16.495Z,1.58
2022-10-25T18:22:08.469Z,1.17
2022-10-25T18:27:00.144Z,1.30
2022-10-25T18:31:51.799Z,1.05
2022-10-25T18:36:43.810Z,0.80
2022-10-25T18:41:35.751Z,0.77
2022-10-25T18:46:32.713Z,0.80
2022-10-25T18:51:26.950Z,0.90
2022-10-25T18:56:21.256Z,1.13
2022-10-25T19:01:17.223Z,0.70
2022-10-25T19:06:09.753Z,0.60
2022-10-25T19:11:06.609Z,0.60
2022-10-25T19:15:59.188Z,0.80
2022-10-25T19:20:50.946Z,0.60
2022-10-25T19:25:42.824Z,0.70
2022-10-25T19:30:39.450Z,0.57
2022-10-25T19:35:31.400Z,0.60
2022-10-25T19:40:23.237Z,1.27
2022-10-25T19:45:14.886Z,0.50
2022-10-25T19:50:07.863Z,0.80
2022-10-25T19:54:59.737Z,0.57
2022-10-25T19:59:51.748Z,0.47
2022-10-25T20:04:43.637Z,0.70
2022-10-25T20:09:35.701Z,0.70
2022-10-25T20:14:27.759Z,0.70
2022-10-25T20:19:19.540Z,0.60
2022-10-25T20:24:11.391Z,0.50
2022-10-25T20:29:16.982Z,0.50
2022-10-25T20:34:11.974Z,0.60
2022-10-25T20:39:04.318Z,0.77
2022-10-25T20:43:59.842Z,0.47
2022-10-25T20:48:52.083Z,0.50
2022-10-25T20:53:45.664Z,0.60
2022-10-25T20:58:37.536Z,0.45
2022-10-25T21:03:31.049Z,0.60
2022-10-25T21:08:23.616Z,0.52
2022-10-25T21:13:15.303Z,0.68
2022-10-25T21:18:06.900Z,0.50
2022-10-25T21:22:58.616Z,0.60
2022-10-25T21:27:54.002Z,0.50
2022-10-25T21:32:45.658Z,0.75
2022-10-25T21:37:37.321Z,0.60
2022-10-25T21:42:32.496Z,0.75
2022-10-25T21:47:24.334Z,0.50
2022-10-25T21:52:16.030Z,0.60
2022-10-25T21:57:07.911Z,0.50
2022-10-25T22:02:00.005Z,0.60
2022-10-25T22:06:51.865Z,0.57
2022-10-25T22:11:43.501Z,0.60
2022-10-25T22:16:35.561Z,0.57
2022-10-25T22:21:29.951Z,0.60
2022-10-25T22:26:22.106Z,0.50
2022-10-25T22:31:16.889Z,0.70
2022-10-25T22:36:13.382Z,0.73
2022-10-25T22:41:09.650Z,0.70
2022-10-25T22:46:04.332Z,0.60
2022-10-25T22:50:56.046Z,0.80
2022-10-25T22:55:59.013Z,0.98
2022-10-25T23:00:51.501Z,0.95
2022-10-25T23:05:43.284Z,0.70
2022-10-25T23:10:34.972Z,0.70
2022-10-25T23:15:26.682Z,0.90
2022-10-25T23:20:18.349Z,1.75
2022-10-25T23:25:10.078Z,0.75
2022-10-25T23:30:01.887Z,1.17
2022-10-25T23:34:56.289Z,0.82
2022-10-25T23:39:48.795Z,1.15
2022-10-25T23:44:40.634Z,1.38
2022-10-25T23:49:32.473Z,0.90
2022-10-25T23:54:25.414Z,0.82
2022-10-25T23:59:17.209Z,1.25
